Time;durP1;ratioP1;P1;durP2;ratioP2;P2;SDS_P1;SDS_P2;PMS_P1;PMS_P2;Temp;Humidity;BMP_temperature;BMP_pressure;BME280_temperature;BME280_humidity;BME280_pressure;Samples;Min_cycle;Max_cycle;Signal;HPM_P1;HPM_P2
2021/12/18 00:00:09;;;;;;;16.30;11.82;;;;;;;7.11;68.39;101656.31;346154;28;1082;-72
2021/12/18 00:00:21;;;;;;;17.13;11.80;;;;;;;7.09;68.10;101653.69;348433;28;1748;-71
2021/12/18 00:00:35;;;;;;;18.50;11.90;;;;;;;7.11;68.26;101659.75;349210;28;1112;-71
2021/12/18 00:00:49;;;;;;;18.70;12.32;;;;;;;7.13;67.94;101657.22;349131;28;1128;-71
2021/12/18 00:01:04;;;;;;;18.42;12.35;;;;;;;7.14;68.65;101657.22;348368;28;1535;-71
2021/12/18 00:01:17;;;;;;;18.73;12.02;;;;;;;7.14;67.84;101662.41;347565;28;1022;-71
2021/12/18 00:01:30;;;;;;;18.92;12.13;;;;;;;7.16;68.31;101660.72;347803;28;1069;-71
2021/12/18 00:01:42;;;;;;;17.75;11.98;;;;;;;7.18;68.57;101664.19;347697;28;1051;-71
2021/12/18 00:01:54;;;;;;;18.80;11.90;;;;;;;7.18;67.98;101666.78;347637;28;1082;-71
2021/12/18 00:02:08;;;;;;;18.98;11.85;;;;;;;7.18;68.44;101664.19;347748;28;1070;-72
2021/12/18 00:02:20;;;;;;;17.80;11.57;;;;;;;7.23;67.71;101669.41;347601;28;988;-71
2021/12/18 00:02:32;;;;;;;17.35;11.93;;;;;;;7.23;68.00;101660.78;346811;28;2206;-71
2021/12/18 00:02:44;;;;;;;17.25;11.82;;;;;;;7.25;68.36;101661.69;346860;28;2006;-71
2021/12/18 00:02:56;;;;;;;17.33;12.02;;;;;;;7.26;68.13;101661.69;346466;28;1557;-70
2021/12/18 00:03:08;;;;;;;17.85;12.27;;;;;;;7.25;67.83;101664.25;347830;28;1197;-72
2021/12/18 00:03:20;;;;;;;17.95;12.30;;;;;;;7.27;68.27;101667.75;347684;28;1085;-71
2021/12/18 00:03:33;;;;;;;18.52;12.02;;;;;;;7.27;67.97;101662.56;347666;28;1461;-70
2021/12/18 00:03:45;;;;;;;19.00;12.05;;;;;;;7.29;68.20;101660.88;347728;28;1073;-71
2021/12/18 00:03:57;;;;;;;18.35;12.00;;;;;;;7.29;68.03;101660.88;348061;28;1217;-72
2021/12/18 00:04:10;;;;;;;18.55;12.05;;;;;;;7.31;68.17;101666.94;348973;28;1033;-72
2021/12/18 00:04:22;;;;;;;20.30;12.50;;;;;;;7.28;68.05;101661.72;348684;28;1088;-71
2021/12/18 00:04:34;;;;;;;20.75;12.77;;;;;;;7.30;67.81;101665.19;349157;28;1085;-72
2021/12/18 00:04:46;;;;;;;19.55;12.70;;;;;;;7.28;67.96;101664.28;349082;28;1148;-71
2021/12/18 00:04:58;;;;;;;19.17;12.50;;;;;;;7.28;67.97;101664.28;348430;28;1293;-72
2021/12/18 00:05:11;;;;;;;18.77;12.27;;;;;;;7.28;67.94;101669.47;347473;28;1278;-72
2021/12/18 00:05:23;;;;;;;18.35;12.07;;;;;;;7.26;67.52;101666.00;346142;28;2038;-72
2021/12/18 00:05:35;;;;;;;18.55;11.98;;;;;;;7.28;67.77;101664.28;346148;28;2199;-71
2021/12/18 00:05:47;;;;;;;18.08;12.02;;;;;;;7.29;67.79;101666.03;346126;28;1104;-71
2021/12/18 00:06:00;;;;;;;18.77;12.38;;;;;;;7.15;67.48;101666.72;346575;28;1273;-72
2021/12/18 00:06:12;;;;;;;19.55;12.70;;;;;;;7.09;68.00;101658.88;347312;28;1044;-70
2021/12/18 00:06:27;;;;;;;20.15;12.52;;;;;;;7.15;68.35;101661.53;347253;28;1173;-71
2021/12/18 00:06:39;;;;;;;19.85;12.88;;;;;;;7.18;68.03;101665.88;347555;28;1325;-71
2021/12/18 00:06:52;;;;;;;18.50;12.65;;;;;;;7.12;67.95;101669.28;347558;28;1109;-72
2021/12/18 00:07:07;;;;;;;19.45;12.48;;;;;;;7.10;68.18;101660.63;347795;28;1057;-72
2021/12/18 00:07:19;;;;;;;19.60;12.35;;;;;;;6.98;68.27;101663.91;347811;28;1088;-71
2021/12/18 00:07:34;;;;;;;18.92;12.57;;;;;;;6.97;68.15;101664.75;347612;28;1371;-71
2021/12/18 00:07:46;;;;;;;18.35;12.75;;;;;;;6.94;68.84;101659.53;347760;28;987;-71
2021/12/18 00:07:59;;;;;;;19.30;13.07;;;;;;;6.98;68.36;101657.84;347744;28;1601;-72
2021/12/18 00:08:11;;;;;;;20.58;13.30;;;;;;;6.91;68.68;101662.06;347694;28;1038;-70
2021/12/18 00:08:23;;;;;;;20.23;12.88;;;;;;;6.94;68.23;101662.13;347596;28;1144;-71
2021/12/18 00:08:36;;;;;;;19.60;12.35;;;;;;;6.95;68.30;101665.56;347571;28;1065;-72
2021/12/18 00:08:49;;;;;;;20.70;12.82;;;;;;;7.00;68.48;101663.91;347790;28;1077;-70
2021/12/18 00:09:01;;;;;;;20.13;12.68;;;;;;;7.04;69.09;101663.09;346771;28;1648;-70
2021/12/18 00:09:13;;;;;;;18.13;12.43;;;;;;;7.04;68.49;101662.25;347157;28;1061;-72
2021/12/18 00:09:26;;;;;;;18.63;12.70;;;;;;;7.07;68.38;101670.06;347093;28;1270;-71
2021/12/18 00:09:39;;;;;;;18.88;12.52;;;;;;;7.09;69.09;101664.03;347817;28;1175;-70
2021/12/18 00:09:53;;;;;;;19.92;12.55;;;;;;;7.12;68.10;101663.22;347714;28;1805;-71
2021/12/18 00:10:06;;;;;;;19.58;11.98;;;;;;;7.15;68.51;101666.72;347753;28;2170;-70
2021/12/18 00:10:21;;;;;;;19.52;12.10;;;;;;;7.17;68.16;101669.31;347701;28;1178;-72
2021/12/18 00:10:33;;;;;;;19.67;12.68;;;;;;;7.16;68.07;101671.06;347777;28;1257;-71
2021/12/18 00:10:46;;;;;;;19.67;12.88;;;;;;;7.15;68.35;101669.31;347547;28;1073;-71
2021/12/18 00:10:58;;;;;;;18.65;12.70;;;;;;;7.15;68.42;101674.47;347365;28;1853;-71
2021/12/18 00:11:13;;;;;;;19.25;12.73;;;;;;;7.14;68.02;101671.84;347547;28;1098;-70
2021/12/18 00:11:26;;;;;;;20.00;13.00;;;;;;;7.15;67.65;101664.13;347443;28;1108;-71
2021/12/18 00:11:38;;;;;;;19.50;12.82;;;;;;;7.07;68.03;101668.31;347401;28;1101;-71
2021/12/18 00:11:50;;;;;;;18.75;12.35;;;;;;;7.08;68.43;101662.28;347462;28;1009;-71
2021/12/18 00:12:03;;;;;;;19.35;12.60;;;;;;;7.08;68.25;101664.88;346730;28;1446;-71
2021/12/18 00:12:15;;;;;;;20.45;12.93;;;;;;;7.10;67.98;101665.81;345961;28;1241;-71
2021/12/18 00:12:27;;;;;;;20.13;13.25;;;;;;;7.08;68.61;101662.28;346039;28;1195;-72
2021/12/18 00:12:47;;;;;;;19.23;12.90;;;;;;;7.09;67.70;101665.78;345680;28;1873;-72
2021/12/18 00:13:00;;;;;;;17.63;12.20;;;;;;;7.10;68.01;101660.63;346168;28;1983;-71
2021/12/18 00:13:13;;;;;;;16.92;11.60;;;;;;;7.11;68.50;101664.94;346476;28;1266;-72
2021/12/18 00:13:25;;;;;;;18.05;12.20;;;;;;;7.12;68.29;101664.09;346704;28;1030;-72
2021/12/18 00:13:38;;;;;;;20.33;12.50;;;;;;;7.16;68.50;101659.81;346163;28;1078;-71
2021/12/18 00:13:50;;;;;;;22.00;12.95;;;;;;;7.12;68.04;101658.03;346427;28;1118;-71
2021/12/18 00:14:02;;;;;;;20.17;12.45;;;;;;;7.12;68.74;101658.03;347205;28;1602;-71
2021/12/18 00:14:15;;;;;;;19.92;12.50;;;;;;;7.11;68.70;101657.19;347708;28;1072;-71
2021/12/18 00:14:27;;;;;;;19.48;12.57;;;;;;;7.11;69.05;101651.16;347433;28;1089;-71
2021/12/18 00:14:39;;;;;;;19.88;12.50;;;;;;;7.07;69.22;101662.28;347787;28;1338;-71
2021/12/18 00:14:51;;;;;;;20.10;12.65;;;;;;;7.05;68.29;101654.50;347528;28;1930;-71
2021/12/18 00:15:03;;;;;;;18.95;12.50;;;;;;;7.05;68.16;101651.91;347309;28;1819;-71
2021/12/18 00:15:17;;;;;;;19.08;12.65;;;;;;;7.09;68.63;101653.69;347775;28;1056;-71
2021/12/18 00:15:29;;;;;;;19.77;13.00;;;;;;;7.08;68.66;101653.66;347522;28;1048;-72
2021/12/18 00:15:41;;;;;;;20.55;13.20;;;;;;;7.09;68.20;101648.53;347500;28;1113;-71
2021/12/18 00:15:53;;;;;;;20.35;12.85;;;;;;;7.07;68.48;101660.56;347699;28;1364;-72
2021/12/18 00:16:07;;;;;;;18.35;12.20;;;;;;;7.08;68.61;101657.13;347762;28;1065;-72
2021/12/18 00:16:19;;;;;;;18.23;12.10;;;;;;;7.08;68.43;101657.13;347355;28;2011;-72
2021/12/18 00:16:31;;;;;;;18.90;12.63;;;;;;;7.11;68.21;101649.41;346771;28;2172;-72
2021/12/18 00:16:43;;;;;;;17.70;12.30;;;;;;;7.13;68.04;101650.31;347738;28;1026;-72
2021/12/18 00:16:55;;;;;;;17.80;12.18;;;;;;;7.11;68.48;101652.00;347853;28;1089;-71
2021/12/18 00:17:07;;;;;;;17.38;11.77;;;;;;;7.12;68.30;101653.75;346340;28;1018;-71
2021/12/18 00:17:19;;;;;;;18.45;12.35;;;;;;;7.14;68.70;101652.06;346373;28;1259;-71
2021/12/18 00:17:31;;;;;;;19.60;12.75;;;;;;;7.13;67.85;101654.63;346463;28;1058;-71
2021/12/18 00:17:43;;;;;;;19.50;12.35;;;;;;;7.09;68.61;101651.13;346354;28;1054;-71
2021/12/18 00:17:56;;;;;;;19.48;12.20;;;;;;;7.06;67.98;101647.63;346498;28;1066;-71
2021/12/18 00:18:08;;;;;;;20.02;12.32;;;;;;;7.06;67.88;101653.66;346151;28;1098;-71
2021/12/18 00:18:22;;;;;;;20.08;12.07;;;;;;;7.07;68.08;101655.41;345876;28;1167;-72
2021/12/18 00:18:35;;;;;;;19.58;12.20;;;;;;;7.06;68.45;101648.47;345913;28;1014;-71
2021/12/18 00:18:50;;;;;;;19.75;12.77;;;;;;;7.08;68.43;101657.13;345960;28;1118;-71
2021/12/18 00:19:03;;;;;;;18.88;12.52;;;;;;;7.07;68.33;101645.06;346810;28;1593;-71
2021/12/18 00:19:15;;;;;;;18.50;11.82;;;;;;;7.11;68.67;101652.00;347461;28;1187;-72
2021/12/18 00:19:27;;;;;;;18.80;11.80;;;;;;;7.14;68.26;101646.88;347383;28;1194;-70
2021/12/18 00:19:39;;;;;;;18.63;12.25;;;;;;;7.13;67.93;101644.28;347426;28;1076;-71
2021/12/18 00:19:51;;;;;;;17.17;12.02;;;;;;;7.17;67.72;101652.09;347054;28;1034;-71
2021/12/18 00:20:04;;;;;;;16.55;11.25;;;;;;;7.16;68.47;101650.38;346171;28;2013;-71
2021/12/18 00:20:18;;;;;;;17.33;11.30;;;;;;;7.18;68.26;101647.78;347522;28;1870;-71
2021/12/18 00:20:31;;;;;;;18.17;11.63;;;;;;;7.19;67.58;101645.22;347539;28;1022;-72
2021/12/18 00:20:43;;;;;;;17.80;11.98;;;;;;;7.19;67.65;101647.81;347735;28;1011;-71
2021/12/18 00:20:57;;;;;;;18.48;12.52;;;;;;;7.20;68.06;101648.66;347717;28;1022;-71
2021/12/18 00:21:13;;;;;;;18.70;12.63;;;;;;;7.22;68.11;101649.56;346489;28;1302;-70
2021/12/18 00:21:26;;;;;;;18.08;12.27;;;;;;;7.26;67.80;101651.31;346178;28;1184;-72
2021/12/18 00:21:38;;;;;;;18.40;12.13;;;;;;;7.27;68.24;101644.47;346214;28;1035;-72
2021/12/18 00:21:50;;;;;;;18.70;12.00;;;;;;;7.27;67.71;101641.88;346257;28;1224;-71
2021/12/18 00:22:02;;;;;;;18.83;12.02;;;;;;;7.24;67.81;101647.00;347128;28;1794;-71
2021/12/18 00:22:15;;;;;;;17.92;12.02;;;;;;;7.25;67.63;101648.75;347372;28;1022;-71
2021/12/18 00:22:27;;;;;;;18.42;11.98;;;;;;;7.26;67.81;101645.28;347523;28;1066;-71
2021/12/18 00:22:39;;;;;;;20.08;12.10;;;;;;;7.29;67.63;101650.53;347547;28;1086;-71
2021/12/18 00:22:52;;;;;;;20.20;12.18;;;;;;;7.28;67.84;101644.47;347329;28;1055;-72
2021/12/18 00:23:05;;;;;;;17.13;11.88;;;;;;;7.30;67.57;101647.06;347483;28;1740;-72
2021/12/18 00:23:17;;;;;;;19.13;12.40;;;;;;;7.29;68.17;101647.94;347474;28;1030;-70
2021/12/18 00:23:29;;;;;;;19.83;12.63;;;;;;;7.30;67.37;101647.94;347558;28;1301;-71
2021/12/18 00:23:42;;;;;;;18.20;12.10;;;;;;;7.27;68.21;101647.03;346457;28;2069;-72
2021/12/18 00:23:54;;;;;;;17.23;11.98;;;;;;;7.27;67.35;101647.91;346113;28;2197;-72
2021/12/18 00:24:08;;;;;;;17.88;12.05;;;;;;;7.28;68.22;101653.94;344969;28;998;-71
2021/12/18 00:24:21;;;;;;;18.45;11.88;;;;;;;7.30;67.51;101652.25;344567;28;1066;-72
2021/12/18 00:24:33;;;;;;;18.63;12.13;;;;;;;7.30;67.54;101652.25;346090;28;1286;-71
2021/12/18 00:24:45;;;;;;;18.63;12.35;;;;;;;7.30;67.87;101649.66;346060;28;1245;-71
2021/12/18 00:24:57;;;;;;;18.05;12.45;;;;;;;7.27;67.84;101652.22;346165;28;1671;-72
2021/12/18 00:25:10;;;;;;;18.17;12.02;;;;;;;7.27;68.08;101647.03;347270;28;1032;-71
2021/12/18 00:25:22;;;;;;;19.20;12.27;;;;;;;7.29;68.09;101647.94;347147;28;1067;-71
2021/12/18 00:25:35;;;;;;;19.48;12.68;;;;;;;7.31;67.94;101654.00;347238;28;1620;-71
2021/12/18 00:25:47;;;;;;;19.00;12.60;;;;;;;7.31;68.13;101648.81;347387;28;1071;-71
2021/12/18 00:25:59;;;;;;;19.35;12.75;;;;;;;7.33;68.21;101644.53;347676;28;1715;-71
2021/12/18 00:26:11;;;;;;;19.10;12.60;;;;;;;7.34;68.00;101648.84;349334;28;1287;-72
2021/12/18 00:26:23;;;;;;;19.52;12.93;;;;;;;7.35;67.78;101650.59;350218;28;1171;-71
2021/12/18 00:26:35;;;;;;;18.80;12.50;;;;;;;7.35;68.15;101648.88;349412;28;1208;-70
2021/12/18 00:26:47;;;;;;;17.90;12.23;;;;;;;7.36;67.67;101647.16;347749;28;1077;-71
2021/12/18 00:27:00;;;;;;;19.58;12.55;;;;;;;7.28;67.44;101648.78;347594;28;1295;-71
2021/12/18 00:27:12;;;;;;;21.05;13.05;;;;;;;7.23;68.02;101645.28;347528;28;1264;-72
2021/12/18 00:27:24;;;;;;;20.45;12.73;;;;;;;7.10;68.28;101644.22;346866;28;2068;-70
2021/12/18 00:27:36;;;;;;;20.00;12.63;;;;;;;7.01;68.69;101647.56;346375;28;1107;-72
2021/12/18 00:27:48;;;;;;;18.33;12.68;;;;;;;7.07;68.51;101645.06;346409;28;1219;-72
2021/12/18 00:28:01;;;;;;;17.80;12.55;;;;;;;7.12;68.31;101646.00;346918;28;1833;-71
2021/12/18 00:28:13;;;;;;;18.02;12.50;;;;;;;7.13;68.26;101650.31;347572;28;1246;-71
2021/12/18 00:28:25;;;;;;;18.52;12.45;;;;;;;7.18;68.26;101651.25;347808;28;1092;-71
2021/12/18 00:28:37;;;;;;;19.17;12.60;;;;;;;7.11;68.40;101644.25;347796;28;1084;-71
2021/12/18 00:28:49;;;;;;;21.58;12.77;;;;;;;7.17;67.76;101651.22;347577;28;1026;-71
2021/12/18 00:29:01;;;;;;;21.30;12.73;;;;;;;7.10;68.27;101647.69;346743;28;1477;-71
2021/12/18 00:29:13;;;;;;;20.25;12.52;;;;;;;7.08;68.88;101644.19;346303;28;1043;-70
2021/12/18 00:29:25;;;;;;;18.63;12.32;;;;;;;7.09;68.39;101647.66;346208;28;1052;-72
2021/12/18 00:29:37;;;;;;;18.70;12.43;;;;;;;7.10;68.02;101647.69;346318;28;1228;-72
2021/12/18 00:29:49;;;;;;;18.70;12.55;;;;;;;7.14;68.82;101646.00;346268;28;1078;-71
2021/12/18 00:30:04;;;;;;;17.95;11.88;;;;;;;7.12;68.45;101646.00;346259;28;1690;-72
2021/12/18 00:30:16;;;;;;;17.95;11.70;;;;;;;7.16;68.05;101650.38;346803;28;1224;-72
2021/12/18 00:30:29;;;;;;;17.52;11.85;;;;;;;7.20;67.85;101646.97;348242;28;1026;-71
2021/12/18 00:30:41;;;;;;;17.63;11.70;;;;;;;7.22;68.80;101646.09;347798;28;1045;-71
2021/12/18 00:30:53;;;;;;;17.65;12.20;;;;;;;7.19;68.26;101647.81;347514;28;1194;-71
2021/12/18 00:31:05;;;;;;;17.55;12.27;;;;;;;7.16;68.01;101645.19;347626;28;1619;-71
2021/12/18 00:31:17;;;;;;;17.80;12.25;;;;;;;7.16;68.18;101646.88;347613;28;1078;-71
2021/12/18 00:31:29;;;;;;;18.17;12.10;;;;;;;7.19;67.65;101650.38;347694;28;1173;-70
2021/12/18 00:31:41;;;;;;;18.48;12.15;;;;;;;7.22;67.94;101643.53;347997;28;731;-70
2021/12/18 00:31:53;;;;;;;18.70;12.15;;;;;;;7.25;67.86;101648.75;347613;28;1015;-70
2021/12/18 00:32:05;;;;;;;19.30;12.00;;;;;;;7.27;67.89;101645.31;347699;28;1683;-70
2021/12/18 00:32:17;;;;;;;20.25;12.00;;;;;;;7.28;68.06;101644.47;347628;28;1270;-72
2021/12/18 00:32:29;;;;;;;19.73;11.95;;;;;;;7.27;67.95;101647.03;346117;28;2237;-72
2021/12/18 00:32:42;;;;;;;18.88;11.98;;;;;;;7.23;68.07;101655.63;346300;28;1222;-71
2021/12/18 00:32:54;;;;;;;19.05;12.35;;;;;;;7.20;68.34;101646.97;346272;28;1015;-71
2021/12/18 00:33:06;;;;;;;20.02;12.63;;;;;;;7.13;68.12;101644.28;346351;28;1429;-71
2021/12/18 00:33:18;;;;;;;19.05;12.60;;;;;;;7.12;67.75;101648.59;346194;28;1247;-72
2021/12/18 00:33:31;;;;;;;18.92;12.43;;;;;;;7.15;67.90;101643.44;346155;28;1734;-72
2021/12/18 00:33:44;;;;;;;18.13;12.00;;;;;;;7.15;68.11;101643.44;345931;28;1974;-71
2021/12/18 00:33:56;;;;;;;17.60;11.85;;;;;;;7.18;67.62;101645.19;347109;28;1965;-71
2021/12/18 00:34:08;;;;;;;18.27;11.95;;;;;;;7.17;67.73;101640.88;346960;28;1286;-72
2021/12/18 00:34:20;;;;;;;19.48;12.02;;;;;;;7.15;68.09;101642.56;346308;28;1026;-72
2021/12/18 00:34:32;;;;;;;19.35;12.30;;;;;;;7.14;67.59;101646.88;346411;28;1030;-71
2021/12/18 00:34:44;;;;;;;18.17;12.00;;;;;;;7.12;67.56;101651.16;346449;28;1167;-72
2021/12/18 00:34:56;;;;;;;18.48;12.13;;;;;;;7.11;68.11;101646.84;346613;28;1848;-71
2021/12/18 00:35:09;;;;;;;18.90;12.45;;;;;;;7.11;67.98;101636.50;347544;28;1032;-72
2021/12/18 00:35:21;;;;;;;18.60;12.38;;;;;;;7.09;67.69;101643.34;347622;28;1316;-71
2021/12/18 00:35:34;;;;;;;18.17;12.25;;;;;;;7.04;68.39;101645.00;347429;28;1290;-70
2021/12/18 00:35:46;;;;;;;18.15;12.15;;;;;;;6.98;68.27;101642.31;347591;28;1046;-72
2021/12/18 00:35:58;;;;;;;18.17;12.45;;;;;;;7.00;68.05;101648.38;347373;28;1810;-72
2021/12/18 00:36:10;;;;;;;18.48;12.20;;;;;;;7.00;67.57;101644.09;347502;28;1228;-72
2021/12/18 00:36:22;;;;;;;18.35;12.00;;;;;;;7.00;67.86;101648.38;347536;28;1109;-71
2021/12/18 00:36:34;;;;;;;18.10;12.05;;;;;;;7.03;68.53;101647.59;347280;28;1053;-72
2021/12/18 00:36:46;;;;;;;18.83;12.50;;;;;;;7.04;68.38;101645.00;347412;28;1906;-71
2021/12/18 00:36:58;;;;;;;19.67;12.45;;;;;;;7.06;68.05;101647.63;347409;28;1294;-72
2021/12/18 00:37:10;;;;;;;19.08;12.02;;;;;;;7.06;68.00;101645.88;347477;28;1062;-72
2021/12/18 00:37:23;;;;;;;17.98;11.82;;;;;;;7.04;68.78;101649.31;346898;28;1824;-71
2021/12/18 00:37:35;;;;;;;17.80;12.02;;;;;;;7.03;68.52;101648.44;346400;28;1210;-72
2021/12/18 00:37:47;;;;;;;17.10;12.07;;;;;;;7.03;68.18;101640.69;345920;28;1139;-71
2021/12/18 00:38:04;;;;;;;17.80;11.90;;;;;;;7.01;68.49;101644.97;346294;28;1835;-70
2021/12/18 00:38:16;;;;;;;17.95;11.80;;;;;;;7.02;68.39;101641.53;347582;28;1115;-72
2021/12/18 00:38:30;;;;;;;17.25;12.02;;;;;;;7.06;68.23;101647.63;347357;28;1232;-71
2021/12/18 00:38:42;;;;;;;17.70;12.32;;;;;;;7.08;68.58;101646.78;347661;28;1727;-72
2021/12/18 00:38:54;;;;;;;17.20;11.88;;;;;;;7.10;68.14;101645.13;347658;28;1571;-72
2021/12/18 00:39:06;;;;;;;16.80;11.48;;;;;;;7.07;67.76;101650.22;349272;28;1603;-72
2021/12/18 00:39:18;;;;;;;18.05;11.85;;;;;;;7.11;68.02;101643.38;349141;28;1243;-72
2021/12/18 00:39:32;;;;;;;18.58;12.00;;;;;;;7.08;67.60;101646.78;349244;28;1097;-72
2021/12/18 00:39:55;;;;;;;18.58;11.93;;;;;;;7.03;68.00;101647.59;349379;28;1038;-72
2021/12/18 00:40:12;;;;;;;18.17;12.18;;;;;;;7.00;67.96;101643.22;347468;28;1867;-70
2021/12/18 00:40:26;;;;;;;19.38;12.60;;;;;;;7.02;68.24;101651.00;346610;28;1728;-71
2021/12/18 00:40:59;;;;;;;19.38;12.50;;;;;;;7.02;68.48;101646.69;346431;28;1199;-72
2021/12/18 00:41:16;;;;;;;19.75;12.70;;;;;;;7.06;68.39;101643.31;346606;28;1085;-72
2021/12/18 00:42:19;;;;;;;17.50;11.52;;;;;;;7.11;67.65;101643.38;348888;28;1879;-71
2021/12/18 00:42:47;;;;;;;18.15;12.02;;;;;;;7.18;67.66;101642.59;346608;28;1199;-72
2021/12/18 00:43:02;;;;;;;17.55;11.52;;;;;;;7.16;68.25;101647.78;346631;28;1868;-72
2021/12/18 00:43:37;;;;;;;17.27;11.73;;;;;;;7.15;67.44;101647.75;347851;28;1086;-72
2021/12/18 00:44:02;;;;;;;16.90;11.85;;;;;;;7.18;67.62;101647.78;348012;28;1204;-70
2021/12/18 00:44:16;;;;;;;17.60;11.82;;;;;;;7.19;67.60;101652.13;348009;28;1289;-71
2021/12/18 00:44:28;;;;;;;17.35;11.80;;;;;;;7.22;67.82;101648.69;348043;28;1036;-72
2021/12/18 00:44:40;;;;;;;17.65;11.65;;;;;;;7.18;68.28;101653.84;348015;28;1341;-72
2021/12/18 00:44:52;;;;;;;17.70;11.60;;;;;;;7.21;67.98;101642.66;347784;28;1269;-71
2021/12/18 00:45:14;;;;;;;18.38;11.60;;;;;;;7.18;67.85;101653.84;348034;28;1166;-71
2021/12/18 00:45:28;;;;;;;18.70;12.27;;;;;;;7.19;67.62;101649.53;347835;28;1062;-71
2021/12/18 00:45:40;;;;;;;17.75;12.07;;;;;;;7.19;67.53;101652.13;349245;28;1062;-72
2021/12/18 00:45:52;;;;;;;18.40;12.02;;;;;;;7.18;67.87;101647.78;349139;28;1053;-71
2021/12/18 00:46:05;;;;;;;18.95;12.18;;;;;;;7.20;67.92;101652.16;346620;28;1061;-72
2021/12/18 00:46:17;;;;;;;18.23;12.25;;;;;;;7.23;68.06;101650.44;346602;28;1239;-72
2021/12/18 00:46:41;;;;;;;18.33;12.30;;;;;;;7.21;67.84;101650.41;346646;28;1248;-71
2021/12/18 00:46:53;;;;;;;18.88;12.45;;;;;;;7.19;67.74;101645.22;346642;28;1227;-71
2021/12/18 00:47:05;;;;;;;18.65;12.20;;;;;;;7.20;67.59;101648.66;348297;28;1479;-72
2021/12/18 00:47:17;;;;;;;18.10;12.02;;;;;;;7.19;68.33;101650.38;347818;28;1148;-70
2021/12/18 00:47:29;;;;;;;17.20;11.90;;;;;;;7.18;67.77;101653.84;347994;28;1068;-71
2021/12/18 00:47:43;;;;;;;18.27;12.27;;;;;;;7.18;67.61;101648.66;347935;28;1563;-71
2021/12/18 00:47:56;;;;;;;19.92;12.38;;;;;;;7.19;67.98;101642.63;347939;28;1209;-71
2021/12/18 00:48:08;;;;;;;19.92;11.85;;;;;;;7.16;68.01;101650.38;348012;28;1057;-71
2021/12/18 00:48:20;;;;;;;19.80;11.90;;;;;;;7.17;68.01;101646.91;348112;28;1090;-71
2021/12/18 00:48:32;;;;;;;20.63;12.32;;;;;;;7.18;67.61;101653.84;347966;28;1182;-72
2021/12/18 00:48:44;;;;;;;19.75;12.32;;;;;;;7.17;68.47;101653.81;348154;28;1104;-71
2021/12/18 00:48:57;;;;;;;19.60;12.73;;;;;;;7.13;67.99;101639.97;347281;28;2205;-70
2021/12/18 00:49:13;;;;;;;19.80;12.55;;;;;;;7.08;67.81;101649.38;346946;28;1153;-71
2021/12/18 00:49:25;;;;;;;18.95;12.52;;;;;;;7.07;67.34;101645.06;348026;28;1101;-72
2021/12/18 00:49:37;;;;;;;19.00;12.60;;;;;;;7.03;67.61;101648.44;347960;28;1030;-71
2021/12/18 00:49:49;;;;;;;20.17;13.10;;;;;;;7.02;67.66;101645.84;348058;28;1141;-71
2021/12/18 00:50:01;;;;;;;20.77;12.95;;;;;;;6.94;68.22;101648.31;347625;28;2049;-71
2021/12/18 00:50:25;;;;;;;19.63;12.68;;;;;;;6.90;68.72;101650.00;347788;28;1317;-72
2021/12/18 00:50:37;;;;;;;18.27;12.35;;;;;;;6.89;68.63;101647.38;347486;28;1286;-72
2021/12/18 00:50:49;;;;;;;18.15;12.45;;;;;;;6.92;68.34;101650.00;347562;28;1018;-72
2021/12/18 00:51:02;;;;;;;18.20;12.43;;;;;;;6.89;68.70;101656.00;348132;28;1433;-70
2021/12/18 00:51:15;;;;;;;17.60;12.32;;;;;;;6.91;68.09;101653.44;346879;28;1597;-71
2021/12/18 00:51:28;;;;;;;17.48;12.23;;;;;;;6.94;67.99;101653.47;347579;28;2077;-71
2021/12/18 00:51:40;;;;;;;18.35;12.52;;;;;;;6.97;67.92;101648.38;346225;28;1021;-71
2021/12/18 00:51:52;;;;;;;19.58;12.70;;;;;;;6.95;68.22;101650.91;346324;28;1230;-71
2021/12/18 00:52:05;;;;;;;20.88;12.85;;;;;;;6.96;68.36;101656.94;347700;28;1494;-71
2021/12/18 00:52:17;;;;;;;19.70;12.30;;;;;;;6.94;68.73;101653.47;347890;28;1139;-72
2021/12/18 00:52:29;;;;;;;18.85;12.43;;;;;;;6.86;68.66;101649.91;347848;28;1019;-72
2021/12/18 00:52:42;;;;;;;19.20;12.70;;;;;;;6.87;68.35;101649.06;346938;28;2032;-71
2021/12/18 00:52:54;;;;;;;19.50;12.65;;;;;;;6.77;68.67;101651.50;346916;28;2217;-70
2021/12/18 00:53:06;;;;;;;19.38;12.48;;;;;;;6.77;68.57;101646.34;346444;28;1374;-71
2021/12/18 00:53:18;;;;;;;19.75;12.60;;;;;;;6.80;68.44;101643.81;346589;28;1271;-71
2021/12/18 00:53:30;;;;;;;19.30;12.50;;;;;;;6.81;68.47;101652.44;346520;28;1249;-72
2021/12/18 00:53:42;;;;;;;17.75;11.90;;;;;;;6.83;69.16;101648.16;346660;28;1359;-71
2021/12/18 00:53:55;;;;;;;17.38;11.90;;;;;;;6.80;68.06;101646.41;346692;28;1058;-72
2021/12/18 00:54:08;;;;;;;18.20;12.43;;;;;;;6.82;68.99;101643.81;346648;28;1130;-71
2021/12/18 00:54:20;;;;;;;19.05;12.85;;;;;;;6.85;68.44;101648.19;346496;28;1330;-72
2021/12/18 00:54:34;;;;;;;18.63;12.32;;;;;;;6.82;67.85;101651.56;346358;28;1171;-71
2021/12/18 00:54:46;;;;;;;18.50;12.10;;;;;;;6.78;68.66;101653.28;346591;28;1038;-71
2021/12/18 00:54:59;;;;;;;18.50;11.88;;;;;;;6.79;68.82;101643.78;346985;28;1599;-71
2021/12/18 00:55:11;;;;;;;18.42;11.82;;;;;;;6.72;68.42;101648.00;347839;28;1080;-72
2021/12/18 00:55:24;;;;;;;18.65;12.20;;;;;;;6.75;68.45;101648.03;347705;28;1327;-71
2021/12/18 00:55:37;;;;;;;19.17;12.77;;;;;;;6.77;68.38;101651.50;347975;28;1160;-70
2021/12/18 00:55:51;;;;;;;20.30;12.93;;;;;;;6.76;68.61;101649.78;347823;28;1022;-72
2021/12/18 00:56:04;;;;;;;21.55;13.10;;;;;;;6.74;68.33;101656.66;348003;28;1040;-70
2021/12/18 00:56:16;;;;;;;21.13;13.27;;;;;;;6.72;68.30;101642.84;347013;28;2175;-70
2021/12/18 00:56:28;;;;;;;20.77;13.02;;;;;;;6.49;69.38;101649.34;347691;28;1074;-71
2021/12/18 00:56:40;;;;;;;20.85;13.27;;;;;;;6.52;68.70;101650.28;348005;28;1238;-71
2021/12/18 00:56:52;;;;;;;20.67;12.80;;;;;;;6.54;69.28;101648.59;348022;28;1163;-72
2021/12/18 00:57:05;;;;;;;19.45;12.38;;;;;;;6.61;68.41;101649.53;347810;28;1887;-71
2021/12/18 00:57:17;;;;;;;19.33;12.60;;;;;;;6.66;69.00;101652.19;347585;28;1283;-72
2021/12/18 00:57:29;;;;;;;19.02;12.63;;;;;;;6.65;68.89;101651.31;347931;28;1193;-71
2021/12/18 00:57:44;;;;;;;18.25;12.38;;;;;;;6.67;68.75;101649.63;348240;28;1485;-71
2021/12/18 00:57:56;;;;;;;17.35;11.88;;;;;;;6.73;68.95;101651.44;348934;28;1936;-71
2021/12/18 00:58:08;;;;;;;19.23;12.20;;;;;;;6.73;68.75;101657.47;347910;28;1240;-71
2021/12/18 00:58:20;;;;;;;19.25;12.27;;;;;;;6.74;68.89;101646.31;347758;28;1983;-72
2021/12/18 00:58:32;;;;;;;20.13;12.52;;;;;;;6.77;69.05;101648.94;347797;28;1328;-71
2021/12/18 00:58:44;;;;;;;20.02;12.85;;;;;;;6.78;68.82;101653.28;347703;28;1237;-71
2021/12/18 00:58:56;;;;;;;19.88;12.82;;;;;;;6.80;68.31;101651.56;347550;28;1902;-71
2021/12/18 00:59:09;;;;;;;18.58;12.60;;;;;;;6.80;68.20;101651.56;347701;28;1172;-71
2021/12/18 00:59:21;;;;;;;19.55;12.68;;;;;;;6.79;68.95;101655.00;347572;28;1062;-72
2021/12/18 00:59:34;;;;;;;19.75;12.60;;;;;;;6.79;68.51;101652.41;347514;28;1685;-72
2021/12/18 00:59:48;;;;;;;20.42;12.77;;;;;;;6.65;68.42;101653.06;347654;28;1249;-72
2021/12/18 01:00:03;;;;;;;19.65;12.75;;;;;;;6.66;68.46;101647.91;346882;28;1883;-71
2021/12/18 01:00:23;;;;;;;19.67;12.93;;;;;;;6.68;68.57;101651.41;347841;28;1054;-72
2021/12/18 01:00:37;;;;;;;20.30;12.98;;;;;;;6.74;68.01;101654.06;347956;28;1054;-71
2021/12/18 01:00:52;;;;;;;20.05;13.18;;;;;;;6.75;68.54;101653.22;347838;28;963;-71
2021/12/18 01:01:08;;;;;;;19.77;12.77;;;;;;;6.77;68.37;101656.69;347922;28;1903;-72
2021/12/18 01:01:22;;;;;;;20.25;12.73;;;;;;;6.80;68.51;101667.09;346768;28;1916;-71
2021/12/18 01:01:35;;;;;;;18.88;12.57;;;;;;;6.80;68.98;101650.69;346860;28;1765;-72
2021/12/18 01:01:47;;;;;;;18.17;12.35;;;;;;;6.80;68.85;101655.84;346571;28;1017;-72
2021/12/18 01:02:00;;;;;;;19.55;12.80;;;;;;;6.79;68.74;101657.56;347121;28;1705;-71
2021/12/18 01:02:12;;;;;;;21.05;13.25;;;;;;;6.83;68.77;101657.63;348005;28;1073;-71
2021/12/18 01:02:24;;;;;;;20.75;13.38;;;;;;;6.85;68.76;101656.81;347929;28;1237;-70